EXS71FL EGGD-LEMG
Flight info
| Callsign | EXS71FL |
|---|---|
| Flight time | 2h 14m |
| Altitude | 35000 |
| Route | EXMOR1Z EXMOR N92 DAWLY N864 BHD DCT SALCO DCT GOPIN DCT DELOG DCT CRISA N864 VULPE VULPE1G |
| Aircraft | B738/M-SDE2E3FGHIRWXY/LB1 |
Departure
| Time | 2026-05-07 16:17 |
|---|---|
| Airport | Bristol Airport (EGGD) |
Arrival
| Time | 2026-05-07 18:31 |
|---|---|
| Airport | Málaga-Costa del Sol Airport (LEMG) |
| Time | Latitude | Longitude | Altitude | Speed | Heading |
|---|---|---|---|---|---|
| 2026-05-07 15:47 | 51.38532 | -2.70697 | 598 ft | 0 kts | 266° |
| 2026-05-07 16:07 | 51.38533 | -2.70688 | 598 ft | 2 kts | 266° |
| 2026-05-07 16:08 | 51.38533 | -2.70672 | 598 ft | 2 kts | 260° |
| 2026-05-07 16:08 | 51.38540 | -2.70651 | 598 ft | 2 kts | 225° |
| 2026-05-07 16:08 | 51.38553 | -2.70638 | 598 ft | 2 kts | 195° |
| 2026-05-07 16:08 | 51.38562 | -2.70636 | 598 ft | 1 kts | 178° |
| 2026-05-07 16:09 | 51.38569 | -2.70637 | 598 ft | 0 kts | 176° |
| 2026-05-07 16:10 | 51.38559 | -2.70636 | 598 ft | 3 kts | 176° |
| 2026-05-07 16:11 | 51.38527 | -2.70633 | 598 ft | 5 kts | 176° |
| 2026-05-07 16:11 | 51.38496 | -2.70638 | 598 ft | 4 kts | 203° |
| 2026-05-07 16:11 | 51.38478 | -2.70673 | 598 ft | 3 kts | 252° |
| 2026-05-07 16:11 | 51.38472 | -2.70732 | 598 ft | 7 kts | 266° |
| 2026-05-07 16:12 | 51.38467 | -2.70858 | 598 ft | 15 kts | 266° |
| 2026-05-07 16:12 | 51.38459 | -2.71071 | 598 ft | 19 kts | 266° |
| 2026-05-07 16:12 | 51.38451 | -2.71278 | 598 ft | 18 kts | 266° |
| 2026-05-07 16:12 | 51.38443 | -2.71472 | 598 ft | 16 kts | 266° |
| 2026-05-07 16:13 | 51.38438 | -2.71650 | 598 ft | 15 kts | 266° |
| 2026-05-07 16:13 | 51.38431 | -2.71826 | 598 ft | 16 kts | 266° |
| 2026-05-07 16:13 | 51.38432 | -2.72004 | 598 ft | 15 kts | 269° |
| 2026-05-07 16:13 | 51.38426 | -2.72168 | 598 ft | 14 kts | 266° |
| 2026-05-07 16:14 | 51.38417 | -2.72349 | 598 ft | 18 kts | 265° |
| 2026-05-07 16:14 | 51.38405 | -2.72569 | 598 ft | 21 kts | 266° |
| 2026-05-07 16:14 | 51.38400 | -2.72831 | 598 ft | 24 kts | 267° |
| 2026-05-07 16:14 | 51.38390 | -2.73095 | 598 ft | 22 kts | 265° |
| 2026-05-07 16:15 | 51.38376 | -2.73276 | 598 ft | 13 kts | 245° |
| 2026-05-07 16:15 | 51.38304 | -2.73347 | 598 ft | 11 kts | 186° |
| 2026-05-07 16:15 | 51.38232 | -2.73310 | 598 ft | 10 kts | 136° |
| 2026-05-07 16:15 | 51.38216 | -2.73209 | 598 ft | 9 kts | 85° |
| 2026-05-07 16:16 | 51.38221 | -2.73111 | 598 ft | 10 kts | 86° |
| 2026-05-07 16:16 | 51.38238 | -2.72630 | 598 ft | 80 kts | 86° |
| 2026-05-07 16:16 | 51.38290 | -2.71354 | 598 ft | 145 kts | 86° |
| 2026-05-07 16:16 | 51.38363 | -2.69575 | 974 ft | 167 kts | 87° |
| 2026-05-07 16:17 | 51.38438 | -2.67669 | 1587 ft | 179 kts | 89° |
| 2026-05-07 16:17 | 51.38498 | -2.65650 | 2237 ft | 188 kts | 89° |
| 2026-05-07 16:17 | 51.38559 | -2.63534 | 2697 ft | 199 kts | 89° |
| 2026-05-07 16:17 | 51.38628 | -2.61235 | 3087 ft | 216 kts | 89° |
| 2026-05-07 16:18 | 51.38704 | -2.58760 | 3547 ft | 230 kts | 89° |
| 2026-05-07 16:18 | 51.38726 | -2.56108 | 4022 ft | 243 kts | 98° |
| 2026-05-07 16:18 | 51.38184 | -2.53554 | 4466 ft | 254 kts | 123° |
| 2026-05-07 16:18 | 51.36982 | -2.51450 | 5041 ft | 262 kts | 142° |
| 2026-05-07 16:19 | 51.35436 | -2.49895 | 5728 ft | 266 kts | 155° |
| 2026-05-07 16:19 | 51.33619 | -2.49233 | 6153 ft | 274 kts | 182° |
| 2026-05-07 16:19 | 51.31794 | -2.49926 | 7024 ft | 271 kts | 202° |
| 2026-05-07 16:19 | 51.30126 | -2.51407 | 7467 ft | 284 kts | 217° |
| 2026-05-07 16:20 | 51.28850 | -2.53861 | 7910 ft | 298 kts | 243° |
| 2026-05-07 16:20 | 51.28174 | -2.57045 | 8334 ft | 305 kts | 250° |
| 2026-05-07 16:20 | 51.27125 | -2.59941 | 8744 ft | 305 kts | 224° |
| 2026-05-07 16:20 | 51.25324 | -2.61652 | 9173 ft | 306 kts | 195° |
| 2026-05-07 16:21 | 51.23210 | -2.62077 | 9612 ft | 309 kts | 183° |
| 2026-05-07 16:21 | 51.21077 | -2.62267 | 10037 ft | 310 kts | 186° |
| 2026-05-07 16:21 | 51.18967 | -2.62819 | 10469 ft | 312 kts | 194° |
| 2026-05-07 16:21 | 51.16891 | -2.63804 | 10897 ft | 313 kts | 200° |
| 2026-05-07 16:22 | 51.14861 | -2.65035 | 11312 ft | 315 kts | 202° |
| 2026-05-07 16:22 | 51.12839 | -2.66365 | 11750 ft | 317 kts | 203° |
| 2026-05-07 16:22 | 51.10802 | -2.67719 | 12162 ft | 319 kts | 203° |
| 2026-05-07 16:22 | 51.08725 | -2.69084 | 12583 ft | 321 kts | 202° |
| 2026-05-07 16:23 | 51.06662 | -2.70423 | 13005 ft | 323 kts | 202° |
| 2026-05-07 16:23 | 51.04567 | -2.71770 | 13425 ft | 326 kts | 202° |
| 2026-05-07 16:23 | 51.02481 | -2.73104 | 13843 ft | 328 kts | 202° |
| 2026-05-07 16:23 | 51.00341 | -2.74469 | 14277 ft | 330 kts | 202° |
| 2026-05-07 16:24 | 50.98216 | -2.75822 | 14707 ft | 332 kts | 202° |
| 2026-05-07 16:24 | 50.96090 | -2.77176 | 15135 ft | 334 kts | 202° |
| 2026-05-07 16:24 | 50.93922 | -2.78555 | 15586 ft | 337 kts | 202° |
| 2026-05-07 16:24 | 50.91730 | -2.79948 | 16043 ft | 339 kts | 202° |
| 2026-05-07 16:25 | 50.89545 | -2.81336 | 16466 ft | 341 kts | 202° |
| 2026-05-07 16:25 | 50.87357 | -2.82723 | 16898 ft | 343 kts | 202° |
| 2026-05-07 16:25 | 50.85129 | -2.84136 | 17338 ft | 345 kts | 202° |
| 2026-05-07 16:25 | 50.82911 | -2.85540 | 17785 ft | 348 kts | 202° |
| 2026-05-07 16:26 | 50.80674 | -2.86953 | 18211 ft | 349 kts | 202° |
| 2026-05-07 16:26 | 50.78402 | -2.88388 | 18649 ft | 351 kts | 202° |
| 2026-05-07 16:26 | 50.76125 | -2.89824 | 19106 ft | 354 kts | 202° |
| 2026-05-07 16:26 | 50.73865 | -2.91248 | 19543 ft | 356 kts | 202° |
| 2026-05-07 16:27 | 50.71537 | -2.92712 | 19991 ft | 358 kts | 202° |
| 2026-05-07 16:27 | 50.69236 | -2.94158 | 20439 ft | 360 kts | 202° |
| 2026-05-07 16:27 | 50.66924 | -2.95611 | 20879 ft | 363 kts | 202° |
| 2026-05-07 16:27 | 50.64555 | -2.97098 | 21330 ft | 365 kts | 202° |
| 2026-05-07 16:28 | 50.62202 | -2.98573 | 21779 ft | 367 kts | 202° |
| 2026-05-07 16:28 | 50.59836 | -3.00055 | 22221 ft | 369 kts | 202° |
| 2026-05-07 16:28 | 50.57457 | -3.01544 | 22670 ft | 371 kts | 202° |
| 2026-05-07 16:28 | 50.55037 | -3.03057 | 23125 ft | 374 kts | 202° |
| 2026-05-07 16:29 | 50.52636 | -3.04556 | 23573 ft | 376 kts | 202° |
| 2026-05-07 16:29 | 50.50189 | -3.06083 | 24029 ft | 379 kts | 202° |
| 2026-05-07 16:29 | 50.47754 | -3.07600 | 24481 ft | 381 kts | 202° |
| 2026-05-07 16:29 | 50.45296 | -3.09129 | 24936 ft | 383 kts | 202° |
| 2026-05-07 16:30 | 50.42822 | -3.10668 | 25393 ft | 386 kts | 202° |
| 2026-05-07 16:30 | 50.40334 | -3.12213 | 25845 ft | 388 kts | 202° |
| 2026-05-07 16:30 | 50.37815 | -3.13775 | 26299 ft | 390 kts | 202° |
| 2026-05-07 16:30 | 50.35259 | -3.15359 | 26759 ft | 392 kts | 202° |
| 2026-05-07 16:31 | 50.32723 | -3.16928 | 27214 ft | 393 kts | 202° |
| 2026-05-07 16:31 | 50.30158 | -3.18513 | 27674 ft | 394 kts | 202° |
| 2026-05-07 16:31 | 50.27620 | -3.20080 | 28129 ft | 394 kts | 202° |
| 2026-05-07 16:31 | 50.25056 | -3.21661 | 28588 ft | 395 kts | 202° |
| 2026-05-07 16:32 | 50.22533 | -3.23215 | 29040 ft | 394 kts | 202° |
| 2026-05-07 16:32 | 50.19975 | -3.24789 | 29500 ft | 394 kts | 202° |
| 2026-05-07 16:32 | 50.17447 | -3.26342 | 29956 ft | 393 kts | 202° |
| 2026-05-07 16:32 | 50.14907 | -3.27901 | 30416 ft | 392 kts | 202° |
| 2026-05-07 16:33 | 50.12395 | -3.29442 | 30872 ft | 390 kts | 202° |
| 2026-05-07 16:33 | 50.09893 | -3.30974 | 31319 ft | 388 kts | 202° |
| 2026-05-07 16:33 | 50.07390 | -3.32506 | 31767 ft | 386 kts | 202° |
| 2026-05-07 16:33 | 50.04902 | -3.34026 | 32214 ft | 383 kts | 202° |
| 2026-05-07 16:34 | 50.02434 | -3.35533 | 32662 ft | 380 kts | 202° |
| 2026-05-07 16:34 | 50.00000 | -3.37017 | 33106 ft | 377 kts | 202° |
| 2026-05-07 16:34 | 49.97578 | -3.38492 | 33552 ft | 373 kts | 202° |
| 2026-05-07 16:34 | 49.95196 | -3.39941 | 33998 ft | 368 kts | 202° |
| 2026-05-07 16:35 | 49.92810 | -3.41392 | 34449 ft | 363 kts | 202° |
| 2026-05-07 16:35 | 49.90499 | -3.42795 | 34849 ft | 359 kts | 202° |
| 2026-05-07 16:35 | 49.88173 | -3.44207 | 34971 ft | 361 kts | 202° |
| 2026-05-07 16:36 | 49.83414 | -3.47090 | 34987 ft | 371 kts | 202° |
| 2026-05-07 16:36 | 49.78509 | -3.50055 | 34986 ft | 381 kts | 202° |
| 2026-05-07 16:37 | 49.73420 | -3.52561 | 34982 ft | 392 kts | 193° |
| 2026-05-07 16:37 | 49.67919 | -3.53507 | 34980 ft | 403 kts | 185° |
| 2026-05-07 16:38 | 49.62266 | -3.53814 | 34976 ft | 413 kts | 183° |
| 2026-05-07 16:38 | 49.56413 | -3.54065 | 34972 ft | 424 kts | 183° |
| 2026-05-07 16:39 | 49.50467 | -3.54361 | 34974 ft | 433 kts | 184° |
| 2026-05-07 16:39 | 49.44480 | -3.54689 | 34968 ft | 431 kts | 184° |
| 2026-05-07 16:40 | 49.38464 | -3.55031 | 34971 ft | 431 kts | 184° |
| 2026-05-07 16:40 | 49.32485 | -3.55377 | 34967 ft | 432 kts | 184° |
| 2026-05-07 16:41 | 49.26463 | -3.55727 | 34966 ft | 431 kts | 184° |
| 2026-05-07 16:41 | 49.20505 | -3.56072 | 34963 ft | 431 kts | 184° |
| 2026-05-07 16:42 | 49.14517 | -3.56418 | 34957 ft | 431 kts | 184° |
| 2026-05-07 16:42 | 49.08497 | -3.56765 | 34963 ft | 431 kts | 184° |
| 2026-05-07 16:43 | 49.02530 | -3.57109 | 34954 ft | 431 kts | 184° |
| 2026-05-07 16:43 | 48.96515 | -3.57454 | 34955 ft | 432 kts | 184° |
| 2026-05-07 16:44 | 48.90561 | -3.57796 | 34952 ft | 432 kts | 184° |
| 2026-05-07 16:44 | 48.84539 | -3.58140 | 34956 ft | 432 kts | 184° |
| 2026-05-07 16:45 | 48.78553 | -3.58482 | 34961 ft | 431 kts | 184° |
| 2026-05-07 16:45 | 48.72587 | -3.58821 | 34970 ft | 431 kts | 184° |
| 2026-05-07 16:46 | 48.66587 | -3.59162 | 34967 ft | 431 kts | 184° |
| 2026-05-07 16:46 | 48.60616 | -3.59500 | 34966 ft | 431 kts | 184° |
| 2026-05-07 16:47 | 48.54606 | -3.59840 | 34963 ft | 432 kts | 184° |
| 2026-05-07 16:47 | 48.48611 | -3.60178 | 34961 ft | 432 kts | 184° |
| 2026-05-07 16:48 | 48.42575 | -3.60518 | 34963 ft | 432 kts | 184° |
| 2026-05-07 16:48 | 48.36554 | -3.60855 | 34962 ft | 433 kts | 184° |
| 2026-05-07 16:49 | 48.30554 | -3.61191 | 34967 ft | 432 kts | 184° |
| 2026-05-07 16:49 | 48.24558 | -3.61525 | 34965 ft | 431 kts | 184° |
| 2026-05-07 16:50 | 48.18562 | -3.61859 | 34963 ft | 432 kts | 184° |
| 2026-05-07 16:50 | 48.12583 | -3.62191 | 34964 ft | 432 kts | 184° |
| 2026-05-07 16:51 | 48.06598 | -3.62523 | 34966 ft | 432 kts | 184° |
| 2026-05-07 16:51 | 48.00572 | -3.62857 | 34963 ft | 433 kts | 184° |
| 2026-05-07 16:52 | 47.94565 | -3.63189 | 34965 ft | 433 kts | 184° |
| 2026-05-07 16:52 | 47.88548 | -3.63520 | 34967 ft | 434 kts | 184° |
| 2026-05-07 16:53 | 47.82556 | -3.63849 | 34967 ft | 434 kts | 184° |
| 2026-05-07 16:53 | 47.76494 | -3.64181 | 34969 ft | 434 kts | 184° |
| 2026-05-07 16:54 | 47.70478 | -3.64510 | 34966 ft | 434 kts | 184° |
| 2026-05-07 16:54 | 47.64486 | -3.64837 | 34968 ft | 435 kts | 184° |
| 2026-05-07 16:55 | 47.58421 | -3.65167 | 34968 ft | 435 kts | 183° |
| 2026-05-07 16:55 | 47.52424 | -3.65492 | 34961 ft | 434 kts | 183° |
| 2026-05-07 16:56 | 47.46390 | -3.65820 | 34962 ft | 435 kts | 183° |
| 2026-05-07 16:56 | 47.37295 | -3.66311 | 34960 ft | 436 kts | 183° |
| 2026-05-07 16:57 | 47.31214 | -3.66639 | 34965 ft | 438 kts | 183° |
| 2026-05-07 16:57 | 47.25150 | -3.66965 | 34965 ft | 437 kts | 183° |
| 2026-05-07 16:58 | 47.19116 | -3.67287 | 34964 ft | 436 kts | 183° |
| 2026-05-07 16:58 | 47.13051 | -3.67611 | 34959 ft | 436 kts | 183° |
| 2026-05-07 16:59 | 47.07020 | -3.67933 | 34966 ft | 437 kts | 183° |
| 2026-05-07 16:59 | 47.00953 | -3.68334 | 34964 ft | 437 kts | 185° |
| 2026-05-07 17:00 | 46.94898 | -3.69041 | 34965 ft | 437 kts | 186° |
| 2026-05-07 17:00 | 46.88870 | -3.69815 | 34962 ft | 438 kts | 186° |
| 2026-05-07 17:01 | 46.82806 | -3.70575 | 34961 ft | 439 kts | 186° |
| 2026-05-07 17:01 | 46.76743 | -3.71311 | 34963 ft | 438 kts | 186° |
| 2026-05-07 17:02 | 46.70678 | -3.72031 | 34961 ft | 437 kts | 186° |
| 2026-05-07 17:02 | 46.64633 | -3.72743 | 34957 ft | 437 kts | 186° |
| 2026-05-07 17:03 | 46.58534 | -3.73457 | 34956 ft | 438 kts | 186° |
| 2026-05-07 17:03 | 46.52480 | -3.74163 | 34953 ft | 439 kts | 186° |
| 2026-05-07 17:04 | 46.46371 | -3.74875 | 34952 ft | 439 kts | 186° |
| 2026-05-07 17:04 | 46.40295 | -3.75580 | 34951 ft | 440 kts | 186° |
| 2026-05-07 17:05 | 46.34176 | -3.76288 | 34953 ft | 440 kts | 186° |
| 2026-05-07 17:05 | 46.28096 | -3.76990 | 34955 ft | 440 kts | 186° |
| 2026-05-07 17:06 | 46.22030 | -3.77690 | 34950 ft | 441 kts | 186° |
| 2026-05-07 17:06 | 46.15910 | -3.78394 | 34950 ft | 441 kts | 186° |
| 2026-05-07 17:07 | 46.09840 | -3.79090 | 34949 ft | 441 kts | 186° |
| 2026-05-07 17:07 | 46.03715 | -3.79792 | 34947 ft | 441 kts | 186° |
| 2026-05-07 17:08 | 45.97574 | -3.80494 | 34945 ft | 442 kts | 186° |
| 2026-05-07 17:08 | 45.91455 | -3.81192 | 34936 ft | 442 kts | 186° |
| 2026-05-07 17:09 | 45.85352 | -3.81886 | 34936 ft | 444 kts | 186° |
| 2026-05-07 17:09 | 45.79197 | -3.82584 | 34935 ft | 443 kts | 186° |
| 2026-05-07 17:10 | 45.73045 | -3.83280 | 34933 ft | 443 kts | 186° |
| 2026-05-07 17:10 | 45.66913 | -3.83974 | 34934 ft | 443 kts | 186° |
| 2026-05-07 17:11 | 45.60779 | -3.84666 | 34939 ft | 443 kts | 186° |
| 2026-05-07 17:11 | 45.54609 | -3.85360 | 34931 ft | 443 kts | 186° |
| 2026-05-07 17:12 | 45.48461 | -3.86049 | 34935 ft | 444 kts | 186° |
| 2026-05-07 17:12 | 45.42313 | -3.86738 | 34930 ft | 444 kts | 186° |
| 2026-05-07 17:13 | 45.36135 | -3.87428 | 34935 ft | 446 kts | 186° |
| 2026-05-07 17:13 | 45.29992 | -3.88113 | 34937 ft | 445 kts | 187° |
| 2026-05-07 17:14 | 45.23795 | -3.88803 | 34931 ft | 447 kts | 187° |
| 2026-05-07 17:14 | 45.17588 | -3.89492 | 34925 ft | 446 kts | 186° |
| 2026-05-07 17:15 | 45.11416 | -3.90176 | 34926 ft | 446 kts | 186° |
| 2026-05-07 17:15 | 45.05253 | -3.90857 | 34917 ft | 446 kts | 186° |
| 2026-05-07 17:16 | 44.99077 | -3.91538 | 34904 ft | 446 kts | 187° |
| 2026-05-07 17:16 | 44.92880 | -3.92220 | 34900 ft | 448 kts | 187° |
| 2026-05-07 17:17 | 44.86684 | -3.92901 | 34901 ft | 449 kts | 187° |
| 2026-05-07 17:17 | 44.80421 | -3.93587 | 34898 ft | 449 kts | 187° |
| 2026-05-07 17:18 | 44.74241 | -3.94262 | 34898 ft | 449 kts | 187° |
| 2026-05-07 17:18 | 44.68012 | -3.94941 | 34898 ft | 449 kts | 187° |
| 2026-05-07 17:19 | 44.61798 | -3.95618 | 34897 ft | 448 kts | 187° |
| 2026-05-07 17:19 | 44.55581 | -3.96293 | 34895 ft | 449 kts | 187° |
| 2026-05-07 17:20 | 44.49345 | -3.96970 | 34894 ft | 450 kts | 187° |
| 2026-05-07 17:20 | 44.43110 | -3.97644 | 34890 ft | 450 kts | 187° |
| 2026-05-07 17:21 | 44.36867 | -3.98318 | 34888 ft | 450 kts | 187° |
| 2026-05-07 17:21 | 44.30613 | -3.98996 | 34887 ft | 451 kts | 187° |
| 2026-05-07 17:22 | 44.24338 | -3.99710 | 34888 ft | 452 kts | 187° |
| 2026-05-07 17:22 | 44.18108 | -4.00430 | 34894 ft | 451 kts | 187° |
| 2026-05-07 17:23 | 44.11814 | -4.01155 | 34882 ft | 452 kts | 187° |
| 2026-05-07 17:23 | 44.05563 | -4.01870 | 34889 ft | 451 kts | 187° |
| 2026-05-07 17:24 | 43.99319 | -4.02582 | 34884 ft | 451 kts | 187° |
| 2026-05-07 17:24 | 43.93070 | -4.03292 | 34878 ft | 452 kts | 187° |
| 2026-05-07 17:25 | 43.86819 | -4.04002 | 34881 ft | 453 kts | 188° |
| 2026-05-07 17:25 | 43.80501 | -4.04716 | 34873 ft | 453 kts | 188° |
| 2026-05-07 17:26 | 43.74238 | -4.05423 | 34874 ft | 454 kts | 187° |
| 2026-05-07 17:26 | 43.67923 | -4.06134 | 34805 ft | 454 kts | 188° |
| 2026-05-07 17:27 | 43.61654 | -4.06840 | 34858 ft | 457 kts | 188° |
| 2026-05-07 17:27 | 43.55313 | -4.07550 | 34866 ft | 456 kts | 188° |
| 2026-05-07 17:28 | 43.49016 | -4.08254 | 34866 ft | 456 kts | 188° |
| 2026-05-07 17:28 | 43.42680 | -4.08961 | 34872 ft | 456 kts | 188° |
| 2026-05-07 17:29 | 43.36359 | -4.09665 | 34869 ft | 457 kts | 188° |
| 2026-05-07 17:29 | 43.30038 | -4.10368 | 34876 ft | 458 kts | 188° |
| 2026-05-07 17:30 | 43.23700 | -4.11073 | 34880 ft | 458 kts | 188° |
| 2026-05-07 17:30 | 43.17357 | -4.11776 | 34875 ft | 459 kts | 188° |
| 2026-05-07 17:31 | 43.10998 | -4.12478 | 34872 ft | 459 kts | 188° |
| 2026-05-07 17:31 | 43.04617 | -4.13182 | 34891 ft | 460 kts | 189° |
| 2026-05-07 17:32 | 42.98262 | -4.13882 | 34886 ft | 461 kts | 189° |
| 2026-05-07 17:32 | 42.91870 | -4.14584 | 34885 ft | 461 kts | 189° |
| 2026-05-07 17:33 | 42.85522 | -4.15278 | 34894 ft | 459 kts | 188° |
| 2026-05-07 17:33 | 42.79122 | -4.15978 | 34894 ft | 460 kts | 189° |
| 2026-05-07 17:34 | 42.72768 | -4.16671 | 34879 ft | 460 kts | 189° |
| 2026-05-07 17:34 | 42.66390 | -4.17366 | 34882 ft | 461 kts | 189° |
| 2026-05-07 17:35 | 42.59993 | -4.18061 | 34885 ft | 462 kts | 189° |
| 2026-05-07 17:35 | 42.53593 | -4.18755 | 34870 ft | 461 kts | 189° |
| 2026-05-07 17:36 | 42.47213 | -4.19442 | 34872 ft | 461 kts | 189° |
| 2026-05-07 17:36 | 42.40788 | -4.20135 | 34880 ft | 462 kts | 189° |
| 2026-05-07 17:37 | 42.34406 | -4.20824 | 34884 ft | 461 kts | 189° |
| 2026-05-07 17:37 | 42.28027 | -4.21512 | 34889 ft | 464 kts | 189° |
| 2026-05-07 17:38 | 42.21614 | -4.22203 | 34882 ft | 463 kts | 189° |
| 2026-05-07 17:38 | 42.15196 | -4.22890 | 34889 ft | 463 kts | 190° |
| 2026-05-07 17:39 | 42.08755 | -4.23574 | 34880 ft | 461 kts | 190° |
| 2026-05-07 17:39 | 42.02392 | -4.24252 | 34910 ft | 463 kts | 190° |
| 2026-05-07 17:40 | 41.95948 | -4.24940 | 34904 ft | 462 kts | 190° |
| 2026-05-07 17:40 | 41.89569 | -4.25618 | 34888 ft | 464 kts | 191° |
| 2026-05-07 17:41 | 41.83089 | -4.26309 | 34892 ft | 465 kts | 191° |
| 2026-05-07 17:41 | 41.76678 | -4.26987 | 34892 ft | 463 kts | 191° |
| 2026-05-07 17:42 | 41.70242 | -4.27665 | 34893 ft | 463 kts | 191° |
| 2026-05-07 17:42 | 41.63795 | -4.28344 | 34898 ft | 464 kts | 191° |
| 2026-05-07 17:43 | 41.57380 | -4.29018 | 34898 ft | 464 kts | 191° |
| 2026-05-07 17:43 | 41.50950 | -4.29692 | 34898 ft | 466 kts | 191° |
| 2026-05-07 17:44 | 41.44458 | -4.30375 | 34898 ft | 466 kts | 192° |
| 2026-05-07 17:44 | 41.38032 | -4.31050 | 34905 ft | 466 kts | 192° |
| 2026-05-07 17:45 | 41.31622 | -4.31715 | 34902 ft | 464 kts | 192° |
| 2026-05-07 17:45 | 41.25129 | -4.32394 | 34899 ft | 467 kts | 192° |
| 2026-05-07 17:46 | 41.18708 | -4.33059 | 34901 ft | 466 kts | 192° |
| 2026-05-07 17:46 | 41.12236 | -4.33731 | 34896 ft | 467 kts | 192° |
| 2026-05-07 17:47 | 41.05784 | -4.34395 | 34900 ft | 466 kts | 193° |
| 2026-05-07 17:47 | 40.99317 | -4.35061 | 34910 ft | 465 kts | 193° |
| 2026-05-07 17:48 | 40.92882 | -4.35723 | 34906 ft | 465 kts | 193° |
| 2026-05-07 17:48 | 40.86476 | -4.36385 | 34905 ft | 463 kts | 193° |
| 2026-05-07 17:49 | 40.80016 | -4.37055 | 34892 ft | 467 kts | 193° |
| 2026-05-07 17:49 | 40.73544 | -4.37718 | 34899 ft | 464 kts | 193° |
| 2026-05-07 17:50 | 40.67102 | -4.38370 | 34891 ft | 463 kts | 193° |
| 2026-05-07 17:50 | 40.60694 | -4.39026 | 34892 ft | 464 kts | 193° |
| 2026-05-07 17:51 | 40.54303 | -4.39674 | 34885 ft | 461 kts | 193° |
| 2026-05-07 17:51 | 40.47848 | -4.40335 | 34888 ft | 465 kts | 194° |
| 2026-05-07 17:52 | 40.41433 | -4.40986 | 34884 ft | 460 kts | 193° |
| 2026-05-07 17:52 | 40.35034 | -4.41636 | 34892 ft | 465 kts | 194° |
| 2026-05-07 17:53 | 40.28658 | -4.42277 | 34890 ft | 460 kts | 194° |
| 2026-05-07 17:53 | 40.22258 | -4.42925 | 34881 ft | 460 kts | 194° |
| 2026-05-07 17:54 | 40.15897 | -4.43565 | 34880 ft | 459 kts | 194° |
| 2026-05-07 17:54 | 40.09529 | -4.44205 | 34881 ft | 460 kts | 194° |
| 2026-05-07 17:55 | 40.03195 | -4.44840 | 34876 ft | 459 kts | 194° |
| 2026-05-07 17:55 | 39.96843 | -4.45478 | 34860 ft | 457 kts | 194° |
| 2026-05-07 17:56 | 39.90475 | -4.46115 | 34869 ft | 458 kts | 194° |
| 2026-05-07 17:56 | 39.84142 | -4.46744 | 34871 ft | 455 kts | 194° |
| 2026-05-07 17:57 | 39.78861 | -4.47270 | 34873 ft | 458 kts | 194° |
| 2026-05-07 17:57 | 39.71482 | -4.48007 | 34868 ft | 456 kts | 194° |
| 2026-05-07 17:58 | 39.65198 | -4.48628 | 34879 ft | 454 kts | 194° |
| 2026-05-07 17:58 | 39.58861 | -4.49259 | 34876 ft | 455 kts | 194° |
| 2026-05-07 17:59 | 39.52564 | -4.49883 | 34880 ft | 456 kts | 194° |
| 2026-05-07 17:59 | 39.46248 | -4.50507 | 34880 ft | 455 kts | 194° |
| 2026-05-07 18:00 | 39.39968 | -4.51121 | 34881 ft | 454 kts | 194° |
| 2026-05-07 18:00 | 39.33677 | -4.51740 | 34876 ft | 451 kts | 194° |
| 2026-05-07 18:01 | 39.27409 | -4.52357 | 34875 ft | 452 kts | 194° |
| 2026-05-07 18:01 | 39.21118 | -4.52973 | 34872 ft | 451 kts | 194° |
| 2026-05-07 18:02 | 39.11704 | -4.53903 | 34866 ft | 454 kts | 194° |
| 2026-05-07 18:03 | 39.05453 | -4.54508 | 34873 ft | 450 kts | 194° |
| 2026-05-07 18:03 | 38.99249 | -4.55108 | 34882 ft | 449 kts | 194° |
| 2026-05-07 18:04 | 38.93029 | -4.55725 | 34880 ft | 447 kts | 195° |
| 2026-05-07 18:04 | 38.86904 | -4.56788 | 34881 ft | 443 kts | 199° |
| 2026-05-07 18:05 | 38.80852 | -4.58141 | 34881 ft | 438 kts | 200° |
| 2026-05-07 18:05 | 38.74871 | -4.59485 | 34881 ft | 439 kts | 200° |
| 2026-05-07 18:06 | 38.68844 | -4.60792 | 34882 ft | 438 kts | 199° |
| 2026-05-07 18:06 | 38.62815 | -4.62067 | 34889 ft | 439 kts | 199° |
| 2026-05-07 18:07 | 38.56826 | -4.63320 | 34886 ft | 438 kts | 199° |
| 2026-05-07 18:07 | 38.50792 | -4.64570 | 34887 ft | 438 kts | 199° |
| 2026-05-07 18:08 | 38.44788 | -4.65810 | 34891 ft | 439 kts | 198° |
| 2026-05-07 18:08 | 38.38761 | -4.67053 | 34894 ft | 440 kts | 198° |
| 2026-05-07 18:09 | 38.32737 | -4.68286 | 34893 ft | 436 kts | 198° |
| 2026-05-07 18:09 | 38.26756 | -4.69511 | 34755 ft | 434 kts | 198° |
| 2026-05-07 18:09 | 38.23792 | -4.70117 | 34166 ft | 433 kts | 199° |
| 2026-05-07 18:10 | 38.20821 | -4.70728 | 33299 ft | 432 kts | 198° |
| 2026-05-07 18:10 | 38.17896 | -4.71321 | 32944 ft | 420 kts | 198° |
| 2026-05-07 18:10 | 38.15083 | -4.71884 | 32481 ft | 411 kts | 198° |
| 2026-05-07 18:10 | 38.12273 | -4.72452 | 31786 ft | 408 kts | 197° |
| 2026-05-07 18:11 | 38.09462 | -4.73029 | 30999 ft | 408 kts | 197° |
| 2026-05-07 18:11 | 38.06679 | -4.73601 | 30333 ft | 404 kts | 196° |
| 2026-05-07 18:11 | 38.03952 | -4.74160 | 29699 ft | 401 kts | 196° |
| 2026-05-07 18:11 | 38.01216 | -4.74720 | 29064 ft | 397 kts | 196° |
| 2026-05-07 18:12 | 37.98506 | -4.75273 | 28451 ft | 393 kts | 196° |
| 2026-05-07 18:12 | 37.95805 | -4.75824 | 27801 ft | 389 kts | 195° |
| 2026-05-07 18:12 | 37.93146 | -4.76366 | 27175 ft | 385 kts | 195° |
| 2026-05-07 18:12 | 37.90549 | -4.76895 | 26527 ft | 383 kts | 195° |
| 2026-05-07 18:13 | 37.87924 | -4.77430 | 25887 ft | 380 kts | 195° |
| 2026-05-07 18:13 | 37.85304 | -4.77964 | 25265 ft | 376 kts | 195° |
| 2026-05-07 18:13 | 37.82744 | -4.78484 | 24675 ft | 372 kts | 195° |
| 2026-05-07 18:13 | 37.80208 | -4.78999 | 24018 ft | 369 kts | 195° |
| 2026-05-07 18:14 | 37.77675 | -4.79493 | 23387 ft | 367 kts | 193° |
| 2026-05-07 18:14 | 37.75153 | -4.79788 | 22782 ft | 367 kts | 188° |
| 2026-05-07 18:14 | 37.72604 | -4.79842 | 22183 ft | 366 kts | 185° |
| 2026-05-07 18:14 | 37.70078 | -4.79779 | 21571 ft | 364 kts | 184° |
| 2026-05-07 18:15 | 37.67560 | -4.79676 | 21023 ft | 360 kts | 183° |
| 2026-05-07 18:15 | 37.65073 | -4.79569 | 20432 ft | 358 kts | 183° |
| 2026-05-07 18:15 | 37.62604 | -4.79472 | 19835 ft | 356 kts | 183° |
| 2026-05-07 18:15 | 37.60124 | -4.79382 | 19229 ft | 354 kts | 183° |
| 2026-05-07 18:16 | 37.57664 | -4.79299 | 18726 ft | 349 kts | 183° |
| 2026-05-07 18:16 | 37.55272 | -4.79221 | 18135 ft | 348 kts | 183° |
| 2026-05-07 18:16 | 37.52864 | -4.79148 | 17598 ft | 344 kts | 183° |
| 2026-05-07 18:16 | 37.50488 | -4.79075 | 17077 ft | 341 kts | 182° |
| 2026-05-07 18:17 | 37.48115 | -4.79005 | 16555 ft | 337 kts | 182° |
| 2026-05-07 18:17 | 37.45800 | -4.78936 | 16046 ft | 334 kts | 181° |
| 2026-05-07 18:17 | 37.43500 | -4.78869 | 15539 ft | 331 kts | 181° |
| 2026-05-07 18:17 | 37.41195 | -4.78801 | 15012 ft | 328 kts | 181° |
| 2026-05-07 18:18 | 37.38920 | -4.78733 | 14494 ft | 325 kts | 180° |
| 2026-05-07 18:18 | 37.36683 | -4.78667 | 13984 ft | 322 kts | 180° |
| 2026-05-07 18:18 | 37.34445 | -4.78601 | 13476 ft | 320 kts | 180° |
| 2026-05-07 18:18 | 37.32241 | -4.78536 | 13000 ft | 316 kts | 179° |
| 2026-05-07 18:19 | 37.30068 | -4.78473 | 12518 ft | 313 kts | 179° |
| 2026-05-07 18:19 | 37.27916 | -4.78409 | 12288 ft | 300 kts | 179° |
| 2026-05-07 18:19 | 37.25878 | -4.78347 | 12120 ft | 287 kts | 179° |
| 2026-05-07 18:19 | 37.23913 | -4.78289 | 11720 ft | 284 kts | 179° |
| 2026-05-07 18:20 | 37.21942 | -4.78231 | 11301 ft | 282 kts | 179° |
| 2026-05-07 18:20 | 37.19984 | -4.78175 | 10909 ft | 280 kts | 179° |
| 2026-05-07 18:20 | 37.18038 | -4.78117 | 10512 ft | 277 kts | 179° |
| 2026-05-07 18:20 | 37.16113 | -4.78061 | 10123 ft | 277 kts | 179° |
| 2026-05-07 18:21 | 37.14187 | -4.78004 | 9731 ft | 277 kts | 179° |
| 2026-05-07 18:21 | 37.12271 | -4.77951 | 9327 ft | 275 kts | 179° |
| 2026-05-07 18:21 | 37.10366 | -4.77902 | 8932 ft | 271 kts | 179° |
| 2026-05-07 18:21 | 37.08499 | -4.77853 | 8543 ft | 268 kts | 179° |
| 2026-05-07 18:22 | 37.06640 | -4.77804 | 8149 ft | 266 kts | 179° |
| 2026-05-07 18:22 | 37.05397 | -4.77770 | 7888 ft | 266 kts | 179° |
| 2026-05-07 18:22 | 37.02948 | -4.77702 | 7366 ft | 264 kts | 178° |
| 2026-05-07 18:22 | 37.01133 | -4.77640 | 6977 ft | 263 kts | 178° |
| 2026-05-07 18:23 | 36.99299 | -4.77589 | 6577 ft | 262 kts | 178° |
| 2026-05-07 18:23 | 36.97484 | -4.77544 | 6182 ft | 261 kts | 178° |
| 2026-05-07 18:23 | 36.95672 | -4.77483 | 5806 ft | 259 kts | 177° |
| 2026-05-07 18:23 | 36.93885 | -4.77417 | 5482 ft | 253 kts | 178° |
| 2026-05-07 18:24 | 36.92155 | -4.77360 | 5166 ft | 248 kts | 178° |
| 2026-05-07 18:24 | 36.90463 | -4.77309 | 5010 ft | 238 kts | 179° |
| 2026-05-07 18:24 | 36.88837 | -4.77251 | 4989 ft | 226 kts | 175° |
| 2026-05-07 18:24 | 36.87342 | -4.76788 | 4986 ft | 217 kts | 154° |
| 2026-05-07 18:25 | 36.86108 | -4.75754 | 4990 ft | 214 kts | 139° |
| 2026-05-07 18:25 | 36.85036 | -4.74442 | 4984 ft | 215 kts | 133° |
| 2026-05-07 18:25 | 36.84054 | -4.73097 | 4936 ft | 206 kts | 131° |
| 2026-05-07 18:25 | 36.83115 | -4.71779 | 4681 ft | 205 kts | 132° |
| 2026-05-07 18:26 | 36.82162 | -4.70439 | 4374 ft | 206 kts | 132° |
| 2026-05-07 18:26 | 36.81208 | -4.69104 | 4090 ft | 203 kts | 132° |
| 2026-05-07 18:26 | 36.80271 | -4.67789 | 3768 ft | 202 kts | 132° |
| 2026-05-07 18:26 | 36.79359 | -4.66508 | 3480 ft | 194 kts | 133° |
| 2026-05-07 18:27 | 36.78486 | -4.65284 | 3230 ft | 182 kts | 133° |
| 2026-05-07 18:27 | 36.77673 | -4.64142 | 2933 ft | 173 kts | 133° |
| 2026-05-07 18:27 | 36.76897 | -4.63055 | 2701 ft | 162 kts | 133° |
| 2026-05-07 18:27 | 36.76160 | -4.62025 | 2472 ft | 161 kts | 133° |
| 2026-05-07 18:28 | 36.75445 | -4.61021 | 2239 ft | 152 kts | 133° |
| 2026-05-07 18:28 | 36.74745 | -4.60048 | 2034 ft | 150 kts | 133° |
| 2026-05-07 18:28 | 36.74041 | -4.59063 | 1810 ft | 150 kts | 132° |
| 2026-05-07 18:28 | 36.73352 | -4.58098 | 1603 ft | 149 kts | 131° |
| 2026-05-07 18:29 | 36.72668 | -4.57142 | 1388 ft | 146 kts | 131° |
| 2026-05-07 18:29 | 36.72008 | -4.56220 | 1186 ft | 142 kts | 131° |
| 2026-05-07 18:29 | 36.71349 | -4.55300 | 982 ft | 140 kts | 131° |
| 2026-05-07 18:29 | 36.70707 | -4.54401 | 786 ft | 139 kts | 131° |
| 2026-05-07 18:30 | 36.70057 | -4.53497 | 590 ft | 139 kts | 131° |
| 2026-05-07 18:30 | 36.69424 | -4.52614 | 400 ft | 138 kts | 130° |
| 2026-05-07 18:30 | 36.68783 | -4.51722 | 205 ft | 136 kts | 129° |
| 2026-05-07 18:30 | 36.68158 | -4.50846 | 59 ft | 130 kts | 131° |
| 2026-05-07 18:31 | 36.67632 | -4.50109 | 48 ft | 89 kts | 130° |
| 2026-05-07 18:31 | 36.67346 | -4.49707 | 45 ft | 39 kts | 131° |
| 2026-05-07 18:31 | 36.67219 | -4.49533 | 43 ft | 18 kts | 130° |
| 2026-05-07 18:31 | 36.67152 | -4.49404 | 42 ft | 17 kts | 116° |
| 2026-05-07 18:32 | 36.67114 | -4.49266 | 39 ft | 12 kts | 103° |
| 2026-05-07 18:32 | 36.67100 | -4.49184 | 38 ft | 6 kts | 96° |
| 2026-05-07 18:32 | 36.67121 | -4.49136 | 37 ft | 7 kts | 15° |
| 2026-05-07 18:32 | 36.67169 | -4.49165 | 37 ft | 7 kts | 308° |
| 2026-05-07 18:33 | 36.67199 | -4.49208 | 38 ft | 5 kts | 313° |
| 2026-05-07 18:33 | 36.67221 | -4.49237 | 39 ft | 5 kts | 311° |
| 2026-05-07 18:33 | 36.67258 | -4.49273 | 39 ft | 6 kts | 351° |
| 2026-05-07 18:33 | 36.67294 | -4.49251 | 39 ft | 5 kts | 30° |
| 2026-05-07 18:34 | 36.67335 | -4.49238 | 39 ft | 5 kts | 18° |
| 2026-05-07 18:34 | 36.67368 | -4.49212 | 38 ft | 5 kts | 41° |
| 2026-05-07 18:34 | 36.67394 | -4.49183 | 38 ft | 3 kts | 42° |
| 2026-05-07 18:34 | 36.67411 | -4.49163 | 39 ft | 3 kts | 41° |
| 2026-05-07 18:35 | 36.67433 | -4.49148 | 39 ft | 3 kts | 8° |
| 2026-05-07 18:35 | 36.67457 | -4.49154 | 40 ft | 3 kts | 332° |
| 2026-05-07 18:35 | 36.67480 | -4.49170 | 40 ft | 2 kts | 331° |
| 2026-05-07 18:35 | 36.67485 | -4.49173 | 40 ft | 0 kts | 332° |